sensor_id;sensor_type;location;lat;lon;timestamp;P1;durP1;ratioP1;P2;durP2;ratioP2
50128;SDS011;36026;45.478;9.224;2023-05-10T00:02:52;25.52;;;17.67;;
50128;SDS011;36026;45.478;9.224;2023-05-10T00:05:54;24.90;;;17.97;;
50128;SDS011;36026;45.478;9.224;2023-05-10T00:08:55;25.35;;;17.83;;
50128;SDS011;36026;45.478;9.224;2023-05-10T00:11:57;24.40;;;17.83;;
50128;SDS011;36026;45.478;9.224;2023-05-10T00:14:59;23.83;;;17.65;;
50128;SDS011;36026;45.478;9.224;2023-05-10T00:18:02;25.55;;;18.20;;
50128;SDS011;36026;45.478;9.224;2023-05-10T00:21:07;27.85;;;18.98;;
50128;SDS011;36026;45.478;9.224;2023-05-10T00:24:09;24.13;;;17.98;;
50128;SDS011;36026;45.478;9.224;2023-05-10T00:27:10;25.05;;;17.95;;
50128;SDS011;36026;45.478;9.224;2023-05-10T00:30:12;24.27;;;16.95;;
50128;SDS011;36026;45.478;9.224;2023-05-10T00:33:15;24.40;;;16.63;;
50128;SDS011;36026;45.478;9.224;2023-05-10T00:36:17;23.05;;;16.65;;
50128;SDS011;36026;45.478;9.224;2023-05-10T00:39:18;24.58;;;17.55;;
50128;SDS011;36026;45.478;9.224;2023-05-10T00:42:20;24.42;;;17.25;;
50128;SDS011;36026;45.478;9.224;2023-05-10T00:45:22;23.65;;;17.60;;
50128;SDS011;36026;45.478;9.224;2023-05-10T00:48:25;24.25;;;17.15;;
50128;SDS011;36026;45.478;9.224;2023-05-10T00:51:27;24.83;;;18.13;;
50128;SDS011;36026;45.478;9.224;2023-05-10T00:54:29;23.70;;;16.90;;
50128;SDS011;36026;45.478;9.224;2023-05-10T00:57:31;25.27;;;16.23;;
50128;SDS011;36026;45.478;9.224;2023-05-10T01:00:33;20.30;;;15.10;;
50128;SDS011;36026;45.478;9.224;2023-05-10T01:03:36;24.35;;;14.73;;
50128;SDS011;36026;45.478;9.224;2023-05-10T01:06:38;21.95;;;15.55;;
50128;SDS011;36026;45.478;9.224;2023-05-10T01:09:40;20.17;;;15.13;;
50128;SDS011;36026;45.478;9.224;2023-05-10T01:12:43;21.15;;;15.30;;
50128;SDS011;36026;45.478;9.224;2023-05-10T01:15:46;19.98;;;14.25;;
50128;SDS011;36026;45.478;9.224;2023-05-10T01:18:49;19.98;;;14.18;;
50128;SDS011;36026;45.478;9.224;2023-05-10T01:22:02;20.00;;;14.25;;
50128;SDS011;36026;45.478;9.224;2023-05-10T01:25:19;20.52;;;14.55;;
50128;SDS011;36026;45.478;9.224;2023-05-10T01:28:33;22.23;;;15.27;;
50128;SDS011;36026;45.478;9.224;2023-05-10T01:35:28;23.10;;;15.30;;
50128;SDS011;36026;45.478;9.224;2023-05-10T01:38:36;21.52;;;14.85;;
50128;SDS011;36026;45.478;9.224;2023-05-10T01:41:42;23.50;;;15.18;;
50128;SDS011;36026;45.478;9.224;2023-05-10T01:44:49;22.10;;;14.50;;
50128;SDS011;36026;45.478;9.224;2023-05-10T01:48:02;20.48;;;14.82;;
50128;SDS011;36026;45.478;9.224;2023-05-10T01:51:06;20.45;;;13.88;;
50128;SDS011;36026;45.478;9.224;2023-05-10T01:54:09;20.55;;;14.82;;
50128;SDS011;36026;45.478;9.224;2023-05-10T01:57:12;20.77;;;14.83;;
50128;SDS011;36026;45.478;9.224;2023-05-10T02:00:14;21.80;;;14.20;;
50128;SDS011;36026;45.478;9.224;2023-05-10T02:03:18;22.05;;;14.82;;
50128;SDS011;36026;45.478;9.224;2023-05-10T02:06:22;20.95;;;14.95;;
50128;SDS011;36026;45.478;9.224;2023-05-10T02:09:25;22.27;;;13.95;;
50128;SDS011;36026;45.478;9.224;2023-05-10T02:12:29;19.02;;;12.93;;
50128;SDS011;36026;45.478;9.224;2023-05-10T02:15:33;18.08;;;13.02;;
50128;SDS011;36026;45.478;9.224;2023-05-10T02:18:36;17.83;;;13.32;;
50128;SDS011;36026;45.478;9.224;2023-05-10T02:21:38;17.40;;;12.63;;
50128;SDS011;36026;45.478;9.224;2023-05-10T02:24:40;16.63;;;11.48;;
50128;SDS011;36026;45.478;9.224;2023-05-10T02:27:42;14.18;;;11.05;;
50128;SDS011;36026;45.478;9.224;2023-05-10T02:30:45;14.45;;;9.95;;
50128;SDS011;36026;45.478;9.224;2023-05-10T02:33:49;13.13;;;9.48;;
50128;SDS011;36026;45.478;9.224;2023-05-10T02:36:52;12.32;;;9.32;;
50128;SDS011;36026;45.478;9.224;2023-05-10T02:39:54;12.45;;;8.55;;
50128;SDS011;36026;45.478;9.224;2023-05-10T02:42:57;16.33;;;8.90;;
50128;SDS011;36026;45.478;9.224;2023-05-10T02:46:00;11.45;;;8.18;;
50128;SDS011;36026;45.478;9.224;2023-05-10T02:49:04;11.77;;;8.50;;
50128;SDS011;36026;45.478;9.224;2023-05-10T02:52:05;12.57;;;8.77;;
50128;SDS011;36026;45.478;9.224;2023-05-10T02:55:09;13.20;;;8.80;;
50128;SDS011;36026;45.478;9.224;2023-05-10T02:58:12;14.02;;;8.65;;
50128;SDS011;36026;45.478;9.224;2023-05-10T03:01:14;14.15;;;8.77;;
50128;SDS011;36026;45.478;9.224;2023-05-10T03:04:17;11.57;;;7.97;;
50128;SDS011;36026;45.478;9.224;2023-05-10T03:07:19;11.93;;;8.33;;
50128;SDS011;36026;45.478;9.224;2023-05-10T03:10:21;10.85;;;7.65;;
50128;SDS011;36026;45.478;9.224;2023-05-10T03:13:28;11.27;;;8.55;;
50128;SDS011;36026;45.478;9.224;2023-05-10T03:16:36;11.27;;;8.35;;
50128;SDS011;36026;45.478;9.224;2023-05-10T03:19:45;13.93;;;8.90;;
50128;SDS011;36026;45.478;9.224;2023-05-10T03:22:51;12.68;;;8.27;;
50128;SDS011;36026;45.478;9.224;2023-05-10T03:25:54;11.98;;;8.25;;
50128;SDS011;36026;45.478;9.224;2023-05-10T03:28:56;12.93;;;8.43;;
50128;SDS011;36026;45.478;9.224;2023-05-10T03:31:59;11.63;;;9.33;;
50128;SDS011;36026;45.478;9.224;2023-05-10T03:35:07;12.65;;;9.02;;
50128;SDS011;36026;45.478;9.224;2023-05-10T03:38:09;12.88;;;8.18;;
50128;SDS011;36026;45.478;9.224;2023-05-10T03:41:11;11.23;;;8.00;;
50128;SDS011;36026;45.478;9.224;2023-05-10T03:44:12;11.95;;;7.95;;
50128;SDS011;36026;45.478;9.224;2023-05-10T03:47:14;11.13;;;7.47;;
50128;SDS011;36026;45.478;9.224;2023-05-10T03:50:17;13.65;;;7.50;;
50128;SDS011;36026;45.478;9.224;2023-05-10T03:53:18;10.27;;;8.20;;
50128;SDS011;36026;45.478;9.224;2023-05-10T03:56:20;11.57;;;8.27;;
50128;SDS011;36026;45.478;9.224;2023-05-10T03:59:22;10.77;;;7.60;;
50128;SDS011;36026;45.478;9.224;2023-05-10T04:02:23;10.07;;;7.28;;
50128;SDS011;36026;45.478;9.224;2023-05-10T04:05:26;10.10;;;7.63;;
50128;SDS011;36026;45.478;9.224;2023-05-10T04:08:28;9.80;;;6.75;;
50128;SDS011;36026;45.478;9.224;2023-05-10T04:11:29;9.82;;;6.85;;
50128;SDS011;36026;45.478;9.224;2023-05-10T04:14:31;12.80;;;7.72;;
50128;SDS011;36026;45.478;9.224;2023-05-10T04:17:33;10.73;;;7.25;;
50128;SDS011;36026;45.478;9.224;2023-05-10T04:20:36;10.65;;;6.88;;
50128;SDS011;36026;45.478;9.224;2023-05-10T04:23:37;11.85;;;7.57;;
50128;SDS011;36026;45.478;9.224;2023-05-10T04:26:39;8.77;;;6.55;;
50128;SDS011;36026;45.478;9.224;2023-05-10T04:29:41;7.60;;;5.90;;
50128;SDS011;36026;45.478;9.224;2023-05-10T04:32:42;8.38;;;6.53;;
50128;SDS011;36026;45.478;9.224;2023-05-10T04:35:45;9.23;;;6.82;;
50128;SDS011;36026;45.478;9.224;2023-05-10T04:38:47;9.15;;;6.00;;
50128;SDS011;36026;45.478;9.224;2023-05-10T04:41:49;7.57;;;6.05;;
50128;SDS011;36026;45.478;9.224;2023-05-10T04:44:50;9.85;;;6.53;;
50128;SDS011;36026;45.478;9.224;2023-05-10T04:47:52;10.45;;;6.80;;
50128;SDS011;36026;45.478;9.224;2023-05-10T04:50:55;7.22;;;5.22;;
50128;SDS011;36026;45.478;9.224;2023-05-10T04:53:57;6.20;;;5.07;;
50128;SDS011;36026;45.478;9.224;2023-05-10T04:56:58;9.48;;;5.88;;
50128;SDS011;36026;45.478;9.224;2023-05-10T05:00:00;7.28;;;5.35;;
50128;SDS011;36026;45.478;9.224;2023-05-10T05:03:02;9.30;;;5.82;;
50128;SDS011;36026;45.478;9.224;2023-05-10T05:06:05;9.05;;;5.45;;
50128;SDS011;36026;45.478;9.224;2023-05-10T05:09:07;8.80;;;5.57;;
50128;SDS011;36026;45.478;9.224;2023-05-10T05:12:10;11.32;;;6.07;;
50128;SDS011;36026;45.478;9.224;2023-05-10T05:15:14;14.02;;;6.43;;
50128;SDS011;36026;45.478;9.224;2023-05-10T05:18:16;12.05;;;6.95;;
50128;SDS011;36026;45.478;9.224;2023-05-10T05:21:19;9.65;;;6.47;;
50128;SDS011;36026;45.478;9.224;2023-05-10T05:24:21;7.32;;;5.13;;
50128;SDS011;36026;45.478;9.224;2023-05-10T05:27:23;8.63;;;5.72;;
50128;SDS011;36026;45.478;9.224;2023-05-10T05:30:26;7.70;;;5.77;;
50128;SDS011;36026;45.478;9.224;2023-05-10T05:33:28;10.55;;;6.20;;
50128;SDS011;36026;45.478;9.224;2023-05-10T05:36:31;10.27;;;6.90;;
50128;SDS011;36026;45.478;9.224;2023-05-10T05:39:35;10.73;;;7.30;;
50128;SDS011;36026;45.478;9.224;2023-05-10T05:42:37;10.60;;;7.00;;
50128;SDS011;36026;45.478;9.224;2023-05-10T05:45:40;9.82;;;7.28;;
50128;SDS011;36026;45.478;9.224;2023-05-10T05:48:41;10.80;;;7.70;;
50128;SDS011;36026;45.478;9.224;2023-05-10T05:51:44;37.20;;;24.20;;
50128;SDS011;36026;45.478;9.224;2023-05-10T05:54:46;22.20;;;14.70;;
50128;SDS011;36026;45.478;9.224;2023-05-10T05:57:47;12.13;;;8.30;;
50128;SDS011;36026;45.478;9.224;2023-05-10T06:00:49;10.93;;;7.85;;
50128;SDS011;36026;45.478;9.224;2023-05-10T06:03:52;9.05;;;6.93;;
50128;SDS011;36026;45.478;9.224;2023-05-10T06:06:55;8.63;;;6.60;;
50128;SDS011;36026;45.478;9.224;2023-05-10T06:09:56;10.50;;;7.35;;
50128;SDS011;36026;45.478;9.224;2023-05-10T06:12:58;8.80;;;6.88;;
50128;SDS011;36026;45.478;9.224;2023-05-10T06:16:00;11.30;;;7.45;;
50128;SDS011;36026;45.478;9.224;2023-05-10T06:19:02;9.82;;;8.07;;
50128;SDS011;36026;45.478;9.224;2023-05-10T06:22:05;82.53;;;56.72;;
50128;SDS011;36026;45.478;9.224;2023-05-10T06:25:07;41.55;;;24.75;;
50128;SDS011;36026;45.478;9.224;2023-05-10T06:28:09;23.83;;;16.00;;
50128;SDS011;36026;45.478;9.224;2023-05-10T06:31:11;27.55;;;17.13;;
50128;SDS011;36026;45.478;9.224;2023-05-10T06:34:13;13.75;;;10.13;;
50128;SDS011;36026;45.478;9.224;2023-05-10T06:37:16;13.32;;;8.40;;
50128;SDS011;36026;45.478;9.224;2023-05-10T06:40:17;9.35;;;6.80;;
50128;SDS011;36026;45.478;9.224;2023-05-10T06:43:19;10.05;;;7.40;;
50128;SDS011;36026;45.478;9.224;2023-05-10T06:46:21;9.35;;;6.80;;
50128;SDS011;36026;45.478;9.224;2023-05-10T06:49:22;7.88;;;6.40;;
50128;SDS011;36026;45.478;9.224;2023-05-10T06:52:26;9.45;;;6.85;;
50128;SDS011;36026;45.478;9.224;2023-05-10T06:55:27;8.50;;;6.85;;
50128;SDS011;36026;45.478;9.224;2023-05-10T06:58:29;8.43;;;5.78;;
50128;SDS011;36026;45.478;9.224;2023-05-10T07:01:32;8.73;;;6.23;;
50128;SDS011;36026;45.478;9.224;2023-05-10T07:04:34;8.50;;;6.53;;
50128;SDS011;36026;45.478;9.224;2023-05-10T07:07:37;7.68;;;6.05;;
50128;SDS011;36026;45.478;9.224;2023-05-10T07:10:39;8.15;;;6.60;;
50128;SDS011;36026;45.478;9.224;2023-05-10T07:13:41;8.60;;;6.03;;
50128;SDS011;36026;45.478;9.224;2023-05-10T07:16:44;11.13;;;7.15;;
50128;SDS011;36026;45.478;9.224;2023-05-10T07:19:46;6.60;;;5.25;;
50128;SDS011;36026;45.478;9.224;2023-05-10T07:22:49;8.48;;;6.00;;
50128;SDS011;36026;45.478;9.224;2023-05-10T07:25:50;7.65;;;5.60;;
50128;SDS011;36026;45.478;9.224;2023-05-10T07:28:52;8.45;;;6.63;;
50128;SDS011;36026;45.478;9.224;2023-05-10T07:31:54;7.18;;;5.65;;
50128;SDS011;36026;45.478;9.224;2023-05-10T07:34:55;7.55;;;5.45;;
50128;SDS011;36026;45.478;9.224;2023-05-10T07:37:58;8.10;;;6.00;;
50128;SDS011;36026;45.478;9.224;2023-05-10T07:41:01;5.63;;;4.38;;
50128;SDS011;36026;45.478;9.224;2023-05-10T07:44:02;7.40;;;4.60;;
50128;SDS011;36026;45.478;9.224;2023-05-10T07:47:04;8.07;;;5.65;;
50128;SDS011;36026;45.478;9.224;2023-05-10T07:50:07;8.23;;;5.45;;
50128;SDS011;36026;45.478;9.224;2023-05-10T07:53:10;7.07;;;5.18;;
50128;SDS011;36026;45.478;9.224;2023-05-10T07:56:21;6.53;;;5.45;;
50128;SDS011;36026;45.478;9.224;2023-05-10T07:59:25;7.38;;;5.38;;
50128;SDS011;36026;45.478;9.224;2023-05-10T08:02:26;6.07;;;4.80;;
50128;SDS011;36026;45.478;9.224;2023-05-10T08:05:28;8.02;;;5.72;;
50128;SDS011;36026;45.478;9.224;2023-05-10T08:08:31;6.65;;;5.00;;
50128;SDS011;36026;45.478;9.224;2023-05-10T08:11:32;5.05;;;4.30;;
50128;SDS011;36026;45.478;9.224;2023-05-10T08:14:34;5.13;;;4.35;;
50128;SDS011;36026;45.478;9.224;2023-05-10T08:17:36;5.05;;;4.00;;
50128;SDS011;36026;45.478;9.224;2023-05-10T08:20:38;5.35;;;4.25;;
50128;SDS011;36026;45.478;9.224;2023-05-10T08:23:41;6.40;;;4.85;;
50128;SDS011;36026;45.478;9.224;2023-05-10T08:26:43;6.97;;;3.70;;
50128;SDS011;36026;45.478;9.224;2023-05-10T08:29:45;4.40;;;3.65;;
50128;SDS011;36026;45.478;9.224;2023-05-10T08:32:46;6.00;;;3.78;;
50128;SDS011;36026;45.478;9.224;2023-05-10T08:35:48;5.07;;;3.63;;
50128;SDS011;36026;45.478;9.224;2023-05-10T08:38:51;5.50;;;3.45;;
50128;SDS011;36026;45.478;9.224;2023-05-10T08:41:53;5.93;;;3.97;;
50128;SDS011;36026;45.478;9.224;2023-05-10T08:44:55;5.43;;;3.50;;
50128;SDS011;36026;45.478;9.224;2023-05-10T08:47:58;4.33;;;3.53;;
50128;SDS011;36026;45.478;9.224;2023-05-10T08:51:01;4.68;;;3.80;;
50128;SDS011;36026;45.478;9.224;2023-05-10T08:54:05;4.70;;;3.83;;
50128;SDS011;36026;45.478;9.224;2023-05-10T08:57:07;5.72;;;3.97;;
50128;SDS011;36026;45.478;9.224;2023-05-10T09:00:09;3.90;;;3.33;;
50128;SDS011;36026;45.478;9.224;2023-05-10T09:03:12;5.13;;;3.53;;
50128;SDS011;36026;45.478;9.224;2023-05-10T09:06:14;4.20;;;3.70;;
50128;SDS011;36026;45.478;9.224;2023-05-10T09:09:17;5.88;;;3.35;;
50128;SDS011;36026;45.478;9.224;2023-05-10T09:12:18;3.87;;;3.47;;
50128;SDS011;36026;45.478;9.224;2023-05-10T09:15:20;4.00;;;3.40;;
50128;SDS011;36026;45.478;9.224;2023-05-10T09:18:22;3.83;;;3.30;;
50128;SDS011;36026;45.478;9.224;2023-05-10T09:21:24;4.25;;;3.80;;
50128;SDS011;36026;45.478;9.224;2023-05-10T09:24:28;4.70;;;3.58;;
50128;SDS011;36026;45.478;9.224;2023-05-10T09:27:30;4.97;;;3.58;;
50128;SDS011;36026;45.478;9.224;2023-05-10T09:30:32;5.13;;;3.95;;
50128;SDS011;36026;45.478;9.224;2023-05-10T09:33:43;6.47;;;3.15;;
50128;SDS011;36026;45.478;9.224;2023-05-10T09:36:51;4.65;;;3.00;;
50128;SDS011;36026;45.478;9.224;2023-05-10T09:39:55;3.92;;;3.00;;
50128;SDS011;36026;45.478;9.224;2023-05-10T09:42:57;3.80;;;3.10;;
50128;SDS011;36026;45.478;9.224;2023-05-10T09:46:00;4.13;;;3.60;;
50128;SDS011;36026;45.478;9.224;2023-05-10T09:49:11;4.35;;;3.67;;
50128;SDS011;36026;45.478;9.224;2023-05-10T09:52:15;5.70;;;3.50;;
50128;SDS011;36026;45.478;9.224;2023-05-10T09:55:19;4.45;;;3.75;;
50128;SDS011;36026;45.478;9.224;2023-05-10T09:58:21;5.63;;;3.10;;
50128;SDS011;36026;45.478;9.224;2023-05-10T10:01:25;4.00;;;3.40;;
50128;SDS011;36026;45.478;9.224;2023-05-10T10:04:27;4.45;;;3.85;;
50128;SDS011;36026;45.478;9.224;2023-05-10T10:07:28;6.60;;;4.38;;
50128;SDS011;36026;45.478;9.224;2023-05-10T10:10:32;5.93;;;3.80;;
50128;SDS011;36026;45.478;9.224;2023-05-10T10:13:35;5.32;;;3.42;;
50128;SDS011;36026;45.478;9.224;2023-05-10T10:16:36;4.75;;;3.45;;
50128;SDS011;36026;45.478;9.224;2023-05-10T10:19:38;5.60;;;3.88;;
50128;SDS011;36026;45.478;9.224;2023-05-10T10:22:40;5.50;;;4.35;;
50128;SDS011;36026;45.478;9.224;2023-05-10T10:25:45;8.63;;;3.90;;
50128;SDS011;36026;45.478;9.224;2023-05-10T10:28:50;6.07;;;3.30;;
50128;SDS011;36026;45.478;9.224;2023-05-10T10:31:57;5.28;;;3.50;;
50128;SDS011;36026;45.478;9.224;2023-05-10T10:35:05;5.13;;;3.60;;
50128;SDS011;36026;45.478;9.224;2023-05-10T10:38:08;4.78;;;3.80;;
50128;SDS011;36026;45.478;9.224;2023-05-10T10:41:26;4.55;;;3.67;;
50128;SDS011;36026;45.478;9.224;2023-05-10T10:44:38;3.97;;;3.55;;
50128;SDS011;36026;45.478;9.224;2023-05-10T10:47:41;5.07;;;3.80;;
50128;SDS011;36026;45.478;9.224;2023-05-10T10:50:44;5.43;;;3.90;;
50128;SDS011;36026;45.478;9.224;2023-05-10T10:53:47;4.78;;;3.63;;
50128;SDS011;36026;45.478;9.224;2023-05-10T11:00:26;6.18;;;4.13;;
50128;SDS011;36026;45.478;9.224;2023-05-10T11:03:29;5.40;;;3.53;;
50128;SDS011;36026;45.478;9.224;2023-05-10T11:06:31;3.95;;;3.58;;
50128;SDS011;36026;45.478;9.224;2023-05-10T11:09:38;4.20;;;3.42;;
50128;SDS011;36026;45.478;9.224;2023-05-10T11:12:50;4.72;;;3.85;;
50128;SDS011;36026;45.478;9.224;2023-05-10T11:15:54;4.43;;;3.70;;
50128;SDS011;36026;45.478;9.224;2023-05-10T11:18:58;3.88;;;3.25;;
50128;SDS011;36026;45.478;9.224;2023-05-10T11:22:14;4.60;;;3.67;;
50128;SDS011;36026;45.478;9.224;2023-05-10T11:25:17;6.93;;;3.92;;
50128;SDS011;36026;45.478;9.224;2023-05-10T11:28:18;6.47;;;3.65;;
50128;SDS011;36026;45.478;9.224;2023-05-10T11:31:22;4.78;;;4.18;;
50128;SDS011;36026;45.478;9.224;2023-05-10T11:34:26;4.70;;;3.90;;
50128;SDS011;36026;45.478;9.224;2023-05-10T11:37:30;8.27;;;4.40;;
50128;SDS011;36026;45.478;9.224;2023-05-10T11:43:35;6.28;;;4.50;;
50128;SDS011;36026;45.478;9.224;2023-05-10T11:46:39;5.38;;;4.22;;
50128;SDS011;36026;45.478;9.224;2023-05-10T11:49:43;3.87;;;3.47;;
50128;SDS011;36026;45.478;9.224;2023-05-10T11:52:45;7.07;;;4.47;;
50128;SDS011;36026;45.478;9.224;2023-05-10T11:55:47;6.57;;;4.70;;
50128;SDS011;36026;45.478;9.224;2023-05-10T11:58:52;6.70;;;5.20;;
50128;SDS011;36026;45.478;9.224;2023-05-10T12:01:55;6.20;;;5.45;;
50128;SDS011;36026;45.478;9.224;2023-05-10T12:04:57;5.80;;;5.20;;
50128;SDS011;36026;45.478;9.224;2023-05-10T12:11:24;5.85;;;5.28;;
50128;SDS011;36026;45.478;9.224;2023-05-10T12:14:26;6.30;;;5.07;;
50128;SDS011;36026;45.478;9.224;2023-05-10T12:17:30;4.78;;;4.38;;
50128;SDS011;36026;45.478;9.224;2023-05-10T12:20:31;4.82;;;4.22;;
50128;SDS011;36026;45.478;9.224;2023-05-10T12:23:33;5.50;;;4.70;;
50128;SDS011;36026;45.478;9.224;2023-05-10T12:26:35;6.20;;;4.22;;
50128;SDS011;36026;45.478;9.224;2023-05-10T12:29:36;4.38;;;3.45;;
50128;SDS011;36026;45.478;9.224;2023-05-10T12:32:45;4.88;;;3.58;;
50128;SDS011;36026;45.478;9.224;2023-05-10T12:35:47;4.27;;;3.47;;
50128;SDS011;36026;45.478;9.224;2023-05-10T12:38:50;4.13;;;3.70;;
50128;SDS011;36026;45.478;9.224;2023-05-10T12:41:52;4.03;;;3.50;;
50128;SDS011;36026;45.478;9.224;2023-05-10T12:44:55;4.85;;;3.70;;
50128;SDS011;36026;45.478;9.224;2023-05-10T12:47:58;5.47;;;3.72;;
50128;SDS011;36026;45.478;9.224;2023-05-10T12:51:00;4.60;;;3.80;;
50128;SDS011;36026;45.478;9.224;2023-05-10T12:54:02;5.00;;;3.83;;
50128;SDS011;36026;45.478;9.224;2023-05-10T12:57:04;4.07;;;3.50;;
50128;SDS011;36026;45.478;9.224;2023-05-10T13:00:06;3.70;;;3.00;;
50128;SDS011;36026;45.478;9.224;2023-05-10T13:03:10;3.45;;;3.10;;
50128;SDS011;36026;45.478;9.224;2023-05-10T13:06:12;3.53;;;3.22;;
50128;SDS011;36026;45.478;9.224;2023-05-10T13:09:14;3.33;;;2.90;;
50128;SDS011;36026;45.478;9.224;2023-05-10T13:12:16;4.00;;;3.00;;
50128;SDS011;36026;45.478;9.224;2023-05-10T13:15:18;5.03;;;3.58;;
50128;SDS011;36026;45.478;9.224;2023-05-10T13:18:23;4.85;;;3.40;;
50128;SDS011;36026;45.478;9.224;2023-05-10T13:21:26;3.85;;;3.45;;
50128;SDS011;36026;45.478;9.224;2023-05-10T13:24:28;5.43;;;3.85;;
50128;SDS011;36026;45.478;9.224;2023-05-10T13:27:31;4.90;;;3.70;;
50128;SDS011;36026;45.478;9.224;2023-05-10T13:30:33;5.00;;;4.10;;
50128;SDS011;36026;45.478;9.224;2023-05-10T13:33:37;5.38;;;3.97;;
50128;SDS011;36026;45.478;9.224;2023-05-10T13:36:39;4.78;;;4.07;;
50128;SDS011;36026;45.478;9.224;2023-05-10T13:39:44;3.72;;;3.28;;
50128;SDS011;36026;45.478;9.224;2023-05-10T13:43:01;4.70;;;4.20;;
50128;SDS011;36026;45.478;9.224;2023-05-10T13:46:12;6.35;;;3.90;;
50128;SDS011;36026;45.478;9.224;2023-05-10T13:49:21;6.38;;;4.40;;
50128;SDS011;36026;45.478;9.224;2023-05-10T13:52:23;4.47;;;3.97;;
50128;SDS011;36026;45.478;9.224;2023-05-10T13:55:24;6.18;;;4.10;;
50128;SDS011;36026;45.478;9.224;2023-05-10T13:58:26;4.95;;;4.03;;
50128;SDS011;36026;45.478;9.224;2023-05-10T14:01:28;3.72;;;3.40;;
50128;SDS011;36026;45.478;9.224;2023-05-10T14:04:31;4.72;;;3.83;;
50128;SDS011;36026;45.478;9.224;2023-05-10T14:07:34;5.25;;;4.15;;
50128;SDS011;36026;45.478;9.224;2023-05-10T14:10:36;4.68;;;4.00;;
50128;SDS011;36026;45.478;9.224;2023-05-10T14:13:38;5.80;;;4.30;;
50128;SDS011;36026;45.478;9.224;2023-05-10T14:16:41;4.40;;;3.85;;
50128;SDS011;36026;45.478;9.224;2023-05-10T14:19:45;4.68;;;3.83;;
50128;SDS011;36026;45.478;9.224;2023-05-10T14:22:47;4.70;;;4.03;;
50128;SDS011;36026;45.478;9.224;2023-05-10T14:25:48;5.28;;;4.30;;
50128;SDS011;36026;45.478;9.224;2023-05-10T14:28:50;4.50;;;4.05;;
50128;SDS011;36026;45.478;9.224;2023-05-10T14:31:52;5.15;;;4.20;;
50128;SDS011;36026;45.478;9.224;2023-05-10T14:34:55;5.20;;;3.92;;
50128;SDS011;36026;45.478;9.224;2023-05-10T14:37:57;5.47;;;4.40;;
50128;SDS011;36026;45.478;9.224;2023-05-10T14:40:58;6.25;;;4.22;;
50128;SDS011;36026;45.478;9.224;2023-05-10T14:44:03;4.68;;;4.15;;
50128;SDS011;36026;45.478;9.224;2023-05-10T14:47:05;4.88;;;4.38;;
50128;SDS011;36026;45.478;9.224;2023-05-10T14:50:08;5.38;;;4.28;;
50128;SDS011;36026;45.478;9.224;2023-05-10T14:53:13;6.80;;;4.45;;
50128;SDS011;36026;45.478;9.224;2023-05-10T14:56:15;5.70;;;4.70;;
50128;SDS011;36026;45.478;9.224;2023-05-10T14:59:17;5.60;;;5.07;;
50128;SDS011;36026;45.478;9.224;2023-05-10T15:02:21;6.10;;;5.18;;
50128;SDS011;36026;45.478;9.224;2023-05-10T15:05:24;5.35;;;4.80;;
50128;SDS011;36026;45.478;9.224;2023-05-10T15:08:26;5.10;;;4.47;;
50128;SDS011;36026;45.478;9.224;2023-05-10T15:11:28;4.72;;;4.32;;
50128;SDS011;36026;45.478;9.224;2023-05-10T15:14:30;4.88;;;4.47;;
50128;SDS011;36026;45.478;9.224;2023-05-10T15:17:32;5.18;;;4.68;;
50128;SDS011;36026;45.478;9.224;2023-05-10T15:20:36;6.00;;;4.93;;
50128;SDS011;36026;45.478;9.224;2023-05-10T15:23:37;4.80;;;4.23;;
50128;SDS011;36026;45.478;9.224;2023-05-10T15:26:39;4.90;;;4.45;;
50128;SDS011;36026;45.478;9.224;2023-05-10T15:29:41;5.13;;;3.95;;
50128;SDS011;36026;45.478;9.224;2023-05-10T15:32:43;5.47;;;3.97;;
50128;SDS011;36026;45.478;9.224;2023-05-10T15:35:46;4.43;;;4.03;;
50128;SDS011;36026;45.478;9.224;2023-05-10T15:38:54;4.20;;;3.70;;
50128;SDS011;36026;45.478;9.224;2023-05-10T15:41:55;5.43;;;4.00;;
50128;SDS011;36026;45.478;9.224;2023-05-10T15:44:57;4.03;;;3.58;;
50128;SDS011;36026;45.478;9.224;2023-05-10T15:47:59;3.92;;;3.40;;
50128;SDS011;36026;45.478;9.224;2023-05-10T15:51:02;7.72;;;3.42;;
50128;SDS011;36026;45.478;9.224;2023-05-10T15:54:04;5.18;;;3.30;;
50128;SDS011;36026;45.478;9.224;2023-05-10T15:57:06;4.65;;;4.03;;
50128;SDS011;36026;45.478;9.224;2023-05-10T16:00:09;3.88;;;3.40;;
50128;SDS011;36026;45.478;9.224;2023-05-10T16:03:11;3.80;;;3.10;;
50128;SDS011;36026;45.478;9.224;2023-05-10T16:06:14;5.20;;;3.30;;
50128;SDS011;36026;45.478;9.224;2023-05-10T16:09:16;5.68;;;3.80;;
50128;SDS011;36026;45.478;9.224;2023-05-10T16:12:18;4.10;;;3.60;;
50128;SDS011;36026;45.478;9.224;2023-05-10T16:15:20;5.38;;;3.90;;
50128;SDS011;36026;45.478;9.224;2023-05-10T16:18:22;4.20;;;3.80;;
50128;SDS011;36026;45.478;9.224;2023-05-10T16:21:25;3.45;;;3.15;;
50128;SDS011;36026;45.478;9.224;2023-05-10T16:24:28;4.53;;;4.00;;
50128;SDS011;36026;45.478;9.224;2023-05-10T16:27:34;4.38;;;3.97;;
50128;SDS011;36026;45.478;9.224;2023-05-10T16:30:37;4.20;;;3.80;;
50128;SDS011;36026;45.478;9.224;2023-05-10T16:33:38;5.50;;;4.00;;
50128;SDS011;36026;45.478;9.224;2023-05-10T16:36:41;3.95;;;3.50;;
50128;SDS011;36026;45.478;9.224;2023-05-10T16:39:43;4.45;;;3.55;;
50128;SDS011;36026;45.478;9.224;2023-05-10T16:42:45;4.93;;;3.78;;
50128;SDS011;36026;45.478;9.224;2023-05-10T16:45:47;4.85;;;3.90;;
50128;SDS011;36026;45.478;9.224;2023-05-10T16:48:49;4.75;;;4.25;;
50128;SDS011;36026;45.478;9.224;2023-05-10T16:51:52;5.78;;;4.38;;
50128;SDS011;36026;45.478;9.224;2023-05-10T16:54:54;7.65;;;5.13;;
50128;SDS011;36026;45.478;9.224;2023-05-10T16:57:56;5.95;;;4.18;;
50128;SDS011;36026;45.478;9.224;2023-05-10T17:01:07;5.53;;;4.75;;
50128;SDS011;36026;45.478;9.224;2023-05-10T17:04:20;5.45;;;4.47;;
50128;SDS011;36026;45.478;9.224;2023-05-10T17:07:31;5.03;;;4.53;;
50128;SDS011;36026;45.478;9.224;2023-05-10T17:10:40;4.13;;;3.45;;
50128;SDS011;36026;45.478;9.224;2023-05-10T17:13:51;4.20;;;3.72;;
50128;SDS011;36026;45.478;9.224;2023-05-10T17:16:57;4.80;;;4.00;;
50128;SDS011;36026;45.478;9.224;2023-05-10T17:20:06;4.13;;;3.72;;
50128;SDS011;36026;45.478;9.224;2023-05-10T17:23:13;4.65;;;3.75;;
50128;SDS011;36026;45.478;9.224;2023-05-10T17:26:15;4.88;;;4.38;;
50128;SDS011;36026;45.478;9.224;2023-05-10T17:29:19;4.55;;;4.07;;
50128;SDS011;36026;45.478;9.224;2023-05-10T17:32:21;5.80;;;4.10;;
50128;SDS011;36026;45.478;9.224;2023-05-10T17:35:34;4.57;;;3.90;;
50128;SDS011;36026;45.478;9.224;2023-05-10T17:38:40;4.68;;;4.03;;
50128;SDS011;36026;45.478;9.224;2023-05-10T17:41:46;5.78;;;4.00;;
50128;SDS011;36026;45.478;9.224;2023-05-10T17:44:49;6.07;;;4.75;;
50128;SDS011;36026;45.478;9.224;2023-05-10T17:47:52;6.25;;;4.45;;
50128;SDS011;36026;45.478;9.224;2023-05-10T17:50:53;6.13;;;4.75;;
50128;SDS011;36026;45.478;9.224;2023-05-10T17:53:57;4.68;;;4.18;;
50128;SDS011;36026;45.478;9.224;2023-05-10T17:56:59;4.57;;;4.05;;
50128;SDS011;36026;45.478;9.224;2023-05-10T18:00:06;4.72;;;3.75;;
50128;SDS011;36026;45.478;9.224;2023-05-10T18:03:28;4.90;;;4.28;;
50128;SDS011;36026;45.478;9.224;2023-05-10T18:06:35;5.18;;;4.35;;
50128;SDS011;36026;45.478;9.224;2023-05-10T18:09:38;7.35;;;5.30;;
50128;SDS011;36026;45.478;9.224;2023-05-10T18:12:40;6.80;;;4.27;;
50128;SDS011;36026;45.478;9.224;2023-05-10T18:15:45;6.05;;;4.95;;
50128;SDS011;36026;45.478;9.224;2023-05-10T18:18:47;5.95;;;4.50;;
50128;SDS011;36026;45.478;9.224;2023-05-10T18:21:48;4.80;;;4.30;;
50128;SDS011;36026;45.478;9.224;2023-05-10T18:24:52;6.07;;;4.20;;
50128;SDS011;36026;45.478;9.224;2023-05-10T18:27:54;5.57;;;3.92;;
50128;SDS011;36026;45.478;9.224;2023-05-10T18:30:55;4.40;;;3.75;;